createdAt,value
2023-02-18T00:01:16.075Z,63.17
2023-02-18T00:03:17.734Z,63.25
2023-02-18T00:05:19.603Z,63.37
2023-02-18T00:07:22.546Z,63.39
2023-02-18T00:09:26.418Z,63.05
2023-02-18T00:11:29.416Z,63.14
2023-02-18T00:13:30.941Z,63.90
2023-02-18T00:15:34.889Z,63.72
2023-02-18T00:17:36.836Z,63.82
2023-02-18T00:19:38.555Z,63.45
2023-02-18T00:21:40.506Z,63.62
2023-02-18T00:23:44.072Z,63.33
2023-02-18T00:25:46.035Z,63.14
2023-02-18T00:27:47.597Z,63.13
2023-02-18T00:29:49.161Z,63.46
2023-02-18T00:31:50.938Z,63.19
2023-02-18T00:33:52.782Z,63.50
2023-02-18T00:36:01.652Z,63.24
2023-02-18T00:38:03.216Z,63.17
2023-02-18T00:40:08.077Z,63.34
2023-02-18T00:42:12.826Z,63.37
2023-02-18T00:44:14.362Z,63.30
2023-02-18T00:46:16.330Z,63.35
2023-02-18T00:48:18.034Z,63.08
2023-02-18T00:50:19.898Z,63.13
2023-02-18T00:52:21.469Z,63.03
2023-02-18T00:54:23.064Z,63.02
2023-02-18T00:56:26.180Z,62.79
2023-02-18T00:58:28.289Z,63.10
2023-02-18T01:00:31.126Z,62.65
2023-02-18T01:02:32.741Z,62.68
2023-02-18T01:04:34.316Z,62.80
2023-02-18T01:06:39.512Z,62.69
2023-02-18T01:08:41.940Z,62.48
2023-02-18T01:10:46.917Z,62.53
2023-02-18T01:12:49.902Z,62.74
2023-02-18T01:14:51.423Z,62.27
2023-02-18T01:16:53.011Z,62.01
2023-02-18T01:18:54.563Z,61.99
2023-02-18T01:20:56.443Z,62.11
2023-02-18T01:22:58.059Z,62.06
2023-02-18T01:24:59.740Z,62.14
2023-02-18T01:27:01.333Z,61.87
2023-02-18T01:29:04.312Z,62.14
2023-02-18T01:31:07.965Z,61.84
2023-02-18T01:33:10.213Z,61.83
2023-02-18T01:35:14.402Z,61.80
2023-02-18T01:37:16.236Z,62.08
2023-02-18T01:39:17.803Z,61.82
2023-02-18T01:41:19.882Z,62.04
2023-02-18T01:43:23.035Z,61.77
2023-02-18T01:45:51.716Z,61.73
2023-02-18T01:47:53.305Z,61.78
2023-02-18T01:49:55.082Z,61.97
2023-02-18T01:52:02.228Z,61.66
2023-02-18T01:54:08.534Z,61.68
2023-02-18T01:56:16.275Z,61.61
2023-02-18T01:58:18.361Z,61.84
2023-02-18T02:00:20.359Z,61.55
2023-02-18T02:02:27.525Z,61.73
2023-02-18T02:04:29.702Z,61.70
2023-02-18T02:06:31.700Z,61.90
2023-02-18T02:08:33.293Z,61.78
2023-02-18T02:10:45.272Z,61.92
2023-02-18T02:12:56.742Z,61.81
2023-02-18T02:15:23.997Z,61.80
2023-02-18T02:17:34.657Z,61.92
2023-02-18T02:20:14.278Z,61.81
2023-02-18T02:22:47.205Z,61.73
2023-02-18T02:25:07.982Z,61.81
2023-02-18T02:27:19.585Z,61.86
2023-02-18T02:29:45.612Z,62.25
2023-02-18T02:32:13.740Z,61.96
2023-02-18T02:34:45.051Z,62.39
2023-02-18T02:36:54.700Z,62.52
2023-02-18T02:39:03.843Z,62.41
2023-02-18T02:41:17.214Z,62.27
2023-02-18T02:43:25.000Z,62.53
2023-02-18T02:45:38.497Z,62.38
2023-02-18T02:47:49.443Z,62.75
2023-02-18T02:50:01.338Z,62.51
2023-02-18T02:52:07.656Z,62.65
2023-02-18T02:54:13.408Z,62.62
2023-02-18T02:56:17.318Z,62.33
2023-02-18T02:58:19.772Z,62.29
2023-02-18T03:00:27.054Z,62.43
2023-02-18T03:02:40.605Z,62.45
2023-02-18T03:04:56.712Z,62.44
2023-02-18T03:07:12.435Z,62.39
2023-02-18T03:09:21.807Z,62.26
2023-02-18T03:11:23.603Z,62.41
2023-02-18T03:13:33.956Z,62.42
2023-02-18T03:15:40.077Z,62.35
2023-02-18T03:17:48.480Z,62.37
2023-02-18T03:19:55.554Z,62.30
2023-02-18T03:22:00.970Z,62.35
2023-02-18T03:24:07.105Z,62.46
2023-02-18T03:26:10.829Z,62.52
2023-02-18T03:28:17.291Z,62.46
2023-02-18T03:30:24.102Z,62.33
2023-02-18T03:32:29.160Z,62.27
2023-02-18T03:34:35.465Z,62.21
2023-02-18T03:36:39.085Z,62.00
2023-02-18T03:38:45.602Z,62.18
2023-02-18T03:40:47.470Z,62.06
2023-02-18T03:42:48.996Z,62.02
2023-02-18T03:44:50.546Z,61.92
2023-02-18T03:46:52.737Z,61.77
2023-02-18T03:48:54.532Z,61.64
2023-02-18T03:50:56.049Z,61.98
2023-02-18T03:52:58.960Z,61.71
2023-02-18T03:55:00.578Z,61.72
2023-02-18T03:57:02.242Z,61.86
2023-02-18T03:59:04.186Z,61.72
2023-02-18T04:01:05.847Z,61.51
2023-02-18T04:03:07.445Z,61.18
2023-02-18T04:05:09.501Z,61.17
2023-02-18T04:07:11.289Z,61.09
2023-02-18T04:09:14.249Z,60.74
2023-02-18T04:11:16.090Z,61.01
2023-02-18T04:13:17.943Z,60.95
2023-02-18T04:15:19.472Z,60.56
2023-02-18T04:17:21.042Z,60.29
2023-02-18T04:19:22.601Z,60.01
2023-02-18T04:21:24.163Z,60.02
2023-02-18T04:23:26.035Z,59.86
2023-02-18T04:25:29.293Z,59.57
2023-02-18T04:27:31.057Z,59.65
2023-02-18T04:29:32.799Z,59.78
2023-02-18T04:31:34.689Z,59.48
2023-02-18T04:33:36.277Z,59.17
2023-02-18T04:35:38.154Z,58.66
2023-02-18T04:37:39.714Z,58.79
2023-02-18T04:39:41.394Z,58.28
2023-02-18T04:41:44.443Z,58.14
2023-02-18T04:43:46.073Z,58.29
2023-02-18T04:45:47.699Z,58.12
2023-02-18T04:47:49.250Z,58.06
2023-02-18T04:49:50.780Z,57.67
2023-02-18T04:51:52.601Z,58.06
2023-02-18T04:53:54.245Z,58.30
2023-02-18T04:55:55.999Z,58.09
2023-02-18T04:57:58.906Z,58.07
2023-02-18T05:00:00.527Z,58.08
2023-02-18T05:02:02.227Z,58.16
2023-02-18T05:04:03.975Z,57.54
2023-02-18T05:06:06.458Z,57.57
2023-02-18T05:08:08.317Z,57.20
2023-02-18T05:10:14.126Z,57.27
2023-02-18T05:12:15.734Z,57.13
2023-02-18T05:14:18.855Z,56.89
2023-02-18T05:16:20.441Z,57.12
2023-02-18T05:18:22.045Z,57.08
2023-02-18T05:20:23.628Z,57.04
2023-02-18T05:22:25.248Z,57.10
2023-02-18T05:24:26.804Z,57.39
2023-02-18T05:26:28.298Z,57.06
2023-02-18T05:28:29.970Z,57.45
2023-02-18T05:30:32.956Z,57.27
2023-02-18T05:32:34.695Z,56.84
2023-02-18T05:34:36.271Z,57.06
2023-02-18T05:36:37.858Z,56.81
2023-02-18T05:38:39.492Z,57.03
2023-02-18T05:40:41.549Z,57.13
2023-02-18T05:42:43.152Z,56.67
2023-02-18T05:44:44.776Z,56.42
2023-02-18T05:46:47.644Z,56.45
2023-02-18T05:48:49.504Z,56.52
2023-02-18T05:50:51.099Z,56.19
2023-02-18T05:52:52.822Z,56.53
2023-02-18T05:54:54.783Z,56.37
2023-02-18T05:56:56.478Z,56.67
2023-02-18T05:58:58.137Z,56.30
2023-02-18T06:00:59.732Z,56.26
2023-02-18T06:03:02.643Z,56.34
2023-02-18T06:05:04.826Z,56.09
2023-02-18T06:07:06.501Z,56.22
2023-02-18T06:09:08.949Z,56.41
2023-02-18T06:11:10.583Z,56.52
2023-02-18T06:13:12.183Z,56.21
2023-02-18T06:15:13.767Z,56.59
2023-02-18T06:17:15.321Z,56.22
2023-02-18T06:19:18.294Z,55.96
2023-02-18T06:21:19.832Z,56.54
2023-02-18T06:23:21.346Z,56.46
2023-02-18T06:25:23.000Z,56.71
2023-02-18T06:27:24.535Z,56.58
2023-02-18T06:29:26.120Z,57.24
2023-02-18T06:31:27.761Z,57.00
2023-02-18T06:33:29.424Z,57.37
2023-02-18T06:35:32.425Z,56.92
2023-02-18T06:37:34.297Z,56.84
2023-02-18T06:39:35.812Z,57.13
2023-02-18T06:41:37.486Z,57.17
2023-02-18T06:43:39.267Z,57.39
2023-02-18T06:45:40.858Z,57.75
2023-02-18T06:47:42.375Z,58.12
2023-02-18T06:49:43.982Z,58.01
2023-02-18T06:51:47.027Z,58.00
2023-02-18T06:53:48.601Z,58.23
2023-02-18T06:55:50.467Z,57.88
2023-02-18T06:57:51.990Z,58.08
2023-02-18T06:59:53.591Z,57.43
2023-02-18T07:01:55.300Z,57.48
2023-02-18T07:03:56.902Z,57.99
2023-02-18T07:05:58.555Z,58.23
2023-02-18T07:08:01.640Z,59.04
2023-02-18T07:10:04.057Z,58.99
2023-02-18T07:12:05.978Z,58.06
2023-02-18T07:14:08.411Z,58.39
2023-02-18T07:16:10.250Z,58.43
2023-02-18T07:18:11.996Z,58.54
2023-02-18T07:20:13.639Z,58.71
2023-02-18T07:22:15.266Z,59.03
2023-02-18T07:24:18.300Z,59.58
2023-02-18T07:26:19.907Z,59.74
2023-02-18T07:28:21.491Z,59.83
2023-02-18T07:30:23.233Z,59.54
2023-02-18T07:32:25.180Z,59.60
2023-02-18T07:34:26.774Z,59.73
2023-02-18T07:36:28.374Z,60.15
2023-02-18T07:38:30.658Z,60.17
2023-02-18T07:40:33.828Z,60.33
2023-02-18T07:42:35.753Z,60.46
2023-02-18T07:44:38.155Z,60.48
2023-02-18T07:46:40.062Z,60.93
2023-02-18T07:48:41.664Z,60.90
2023-02-18T07:50:45.011Z,61.06
2023-02-18T07:52:46.565Z,61.05
2023-02-18T07:54:48.289Z,61.19
2023-02-18T07:56:51.768Z,61.47
2023-02-18T07:58:53.472Z,61.48
2023-02-18T08:00:55.929Z,61.59
2023-02-18T08:02:57.513Z,61.77
2023-02-18T08:04:59.099Z,61.76
2023-02-18T08:07:00.757Z,61.79
2023-02-18T08:09:03.050Z,61.60
2023-02-18T08:11:13.245Z,61.87
2023-02-18T08:13:20.116Z,61.91
2023-02-18T08:15:21.838Z,61.67
2023-02-18T08:17:23.408Z,61.90
2023-02-18T08:19:25.039Z,61.87
2023-02-18T08:21:27.429Z,61.93
2023-02-18T08:23:29.263Z,62.17
2023-02-18T08:25:31.070Z,61.93
2023-02-18T08:27:33.102Z,61.76
2023-02-18T08:29:36.065Z,61.69
2023-02-18T08:31:38.178Z,61.46
2023-02-18T08:33:39.849Z,61.51
2023-02-18T08:35:42.330Z,61.49
2023-02-18T08:37:53.163Z,61.48
2023-02-18T08:39:56.119Z,61.50
2023-02-18T08:41:57.778Z,61.54
2023-02-18T08:43:59.494Z,60.38
2023-02-18T08:46:02.781Z,60.11
2023-02-18T08:48:13.503Z,59.38
2023-02-18T08:50:21.046Z,58.63
2023-02-18T08:52:23.487Z,58.09
2023-02-18T08:54:25.287Z,58.35
2023-02-18T08:56:27.177Z,57.95
2023-02-18T08:58:28.894Z,58.07
2023-02-18T09:00:30.571Z,56.97
2023-02-18T09:02:33.701Z,56.94
2023-02-18T09:04:35.343Z,57.08
2023-02-18T09:06:37.862Z,57.41
2023-02-18T09:08:39.474Z,56.82
2023-02-18T09:10:41.169Z,57.19
2023-02-18T09:12:42.939Z,56.79
2023-02-18T09:14:47.545Z,56.71
2023-02-18T09:16:49.369Z,57.12
2023-02-18T09:18:52.475Z,56.95
2023-02-18T09:20:56.701Z,57.38
2023-02-18T09:22:58.535Z,56.91
2023-02-18T09:25:00.164Z,56.63
2023-02-18T09:27:01.903Z,56.54
2023-02-18T09:29:03.756Z,56.97
2023-02-18T09:31:06.753Z,57.47
2023-02-18T09:33:08.774Z,56.96
2023-02-18T09:35:11.913Z,56.64
2023-02-18T09:37:13.600Z,56.30
2023-02-18T09:39:15.249Z,56.58
2023-02-18T09:41:27.331Z,56.95
2023-02-18T09:43:33.604Z,56.70
2023-02-18T09:45:35.503Z,56.26
2023-02-18T09:47:40.995Z,55.81
2023-02-18T09:49:52.517Z,56.58
2023-02-18T09:51:57.196Z,56.01
2023-02-18T09:53:59.022Z,56.14
2023-02-18T09:56:03.026Z,56.06
2023-02-18T09:58:07.248Z,56.17
2023-02-18T10:00:14.674Z,55.95
2023-02-18T10:02:16.606Z,55.75
2023-02-18T10:04:22.343Z,55.35
2023-02-18T10:06:29.575Z,55.64
2023-02-18T10:08:36.528Z,55.68
2023-02-18T10:10:41.887Z,55.38
2023-02-18T10:12:43.778Z,55.49
2023-02-18T10:14:49.842Z,54.68
2023-02-18T10:16:53.396Z,54.93
2023-02-18T10:18:58.315Z,54.75
2023-02-18T10:21:05.970Z,54.89
2023-02-18T10:23:12.123Z,55.40
2023-02-18T10:25:19.740Z,55.05
2023-02-18T10:27:25.813Z,54.58
2023-02-18T10:29:28.095Z,54.93
2023-02-18T10:31:34.254Z,54.82
2023-02-18T10:33:45.614Z,55.08
2023-02-18T10:35:53.473Z,55.42
2023-02-18T10:38:04.409Z,55.53
2023-02-18T10:40:16.296Z,54.78
2023-02-18T10:42:30.328Z,55.42
2023-02-18T10:44:40.622Z,55.32
2023-02-18T10:46:48.802Z,54.86
2023-02-18T10:49:24.567Z,54.77
2023-02-18T10:51:29.795Z,54.76
2023-02-18T10:53:34.712Z,54.72
2023-02-18T10:55:40.175Z,54.68
2023-02-18T10:57:51.262Z,54.43
2023-02-18T11:00:02.331Z,54.17
2023-02-18T11:02:18.091Z,54.08
2023-02-18T11:04:23.789Z,53.56
2023-02-18T11:06:31.302Z,53.29
2023-02-18T11:08:41.124Z,52.74
2023-02-18T11:10:45.479Z,53.51
2023-02-18T11:12:51.666Z,53.08
2023-02-18T11:15:06.598Z,52.87
2023-02-18T11:17:15.961Z,53.44
2023-02-18T11:19:32.086Z,52.63
2023-02-18T11:21:36.603Z,52.17
2023-02-18T11:23:47.651Z,52.12
2023-02-18T11:26:01.605Z,52.37
2023-02-18T11:28:06.335Z,52.39
2023-02-18T11:30:19.913Z,51.62
2023-02-18T11:32:21.920Z,52.18
2023-02-18T11:34:27.325Z,51.93
2023-02-18T11:36:31.314Z,52.12
2023-02-18T11:38:36.853Z,52.40
2023-02-18T11:40:38.489Z,52.13
2023-02-18T11:42:40.370Z,51.43
2023-02-18T11:44:51.233Z,51.60
2023-02-18T11:47:01.392Z,50.56
2023-02-18T11:49:24.698Z,50.18
2023-02-18T11:51:28.518Z,50.41
2023-02-18T11:53:31.845Z,49.35
2023-02-18T11:55:34.017Z,49.74
2023-02-18T11:57:39.572Z,49.07
2023-02-18T11:59:43.793Z,51.35
2023-02-18T12:01:50.066Z,50.20
2023-02-18T12:03:58.627Z,50.66
2023-02-18T12:06:03.104Z,51.39
2023-02-18T12:08:13.072Z,49.15
2023-02-18T12:10:22.436Z,49.67
2023-02-18T12:12:28.347Z,49.34
2023-02-18T12:14:30.155Z,49.51
2023-02-18T12:16:47.095Z,49.81
2023-02-18T12:19:06.244Z,49.58
2023-02-18T12:21:26.034Z,49.30
2023-02-18T12:23:36.427Z,49.96
2023-02-18T12:25:44.602Z,48.88
2023-02-18T12:27:54.554Z,49.11
2023-02-18T12:30:24.846Z,48.27
2023-02-18T12:32:40.235Z,47.63
2023-02-18T12:34:59.404Z,47.39
2023-02-18T12:37:14.701Z,47.36
2023-02-18T12:39:29.145Z,46.59
2023-02-18T12:41:41.074Z,47.42
2023-02-18T12:43:57.742Z,47.06
2023-02-18T12:46:19.918Z,46.72
2023-02-18T12:48:49.225Z,47.59
2023-02-18T12:51:07.530Z,47.33
2023-02-18T12:53:35.864Z,47.25
2023-02-18T12:56:03.401Z,46.46
2023-02-18T12:58:47.895Z,47.00
2023-02-18T13:04:41.414Z,47.10
2023-02-18T13:10:44.862Z,47.29
2023-02-18T13:13:16.084Z,47.63
2023-02-18T13:20:53.840Z,48.68
2023-02-18T13:23:02.959Z,48.42
2023-02-18T13:25:21.376Z,48.40
2023-02-18T13:28:10.294Z,48.73
2023-02-18T13:30:47.678Z,48.60
2023-02-18T13:33:39.167Z,48.63
2023-02-18T13:36:06.388Z,47.59
2023-02-18T13:41:49.798Z,48.20
2023-02-18T13:43:51.448Z,47.72
2023-02-18T13:49:41.521Z,48.15
2023-02-18T13:51:46.450Z,47.96
2023-02-18T13:53:51.619Z,48.58
2023-02-18T13:55:57.104Z,48.01
2023-02-18T13:58:01.058Z,47.89
2023-02-18T14:00:15.143Z,48.13
2023-02-18T14:02:34.805Z,47.73
2023-02-18T14:04:50.706Z,47.10
2023-02-18T14:07:26.013Z,47.17
2023-02-18T14:09:42.060Z,46.79
2023-02-18T14:11:47.964Z,46.73
2023-02-18T14:13:54.036Z,47.38
2023-02-18T14:15:59.140Z,47.23
2023-02-18T14:18:22.475Z,46.92
2023-02-18T14:20:45.267Z,47.20
2023-02-18T14:22:49.991Z,47.15
2023-02-18T14:24:56.714Z,47.33
2023-02-18T14:27:14.499Z,47.50
2023-02-18T14:29:28.696Z,47.03
2023-02-18T14:31:53.725Z,47.14
2023-02-18T14:34:27.314Z,47.38
2023-02-18T14:36:35.550Z,47.63
2023-02-18T14:38:47.832Z,47.41
2023-02-18T14:41:34.141Z,47.58
2023-02-18T14:44:00.979Z,47.49
2023-02-18T14:46:12.666Z,47.79
2023-02-18T14:48:57.290Z,47.43
2023-02-18T14:50:59.089Z,47.55
2023-02-18T14:53:05.203Z,48.03
2023-02-18T14:55:18.990Z,47.79
2023-02-18T14:57:28.066Z,47.66
2023-02-18T14:59:33.925Z,47.66
2023-02-18T15:01:36.516Z,48.33
2023-02-18T15:03:40.396Z,47.86
2023-02-18T15:05:49.245Z,48.15
2023-02-18T15:08:02.394Z,47.88
2023-02-18T15:10:04.292Z,48.23
2023-02-18T15:12:09.623Z,48.04
2023-02-18T15:14:18.132Z,47.87
2023-02-18T15:16:24.010Z,48.16
2023-02-18T15:18:33.755Z,48.42
2023-02-18T15:20:38.424Z,48.16
2023-02-18T15:22:40.761Z,48.14
2023-02-18T15:24:43.732Z,48.49
2023-02-18T15:26:47.927Z,47.99
2023-02-18T15:28:58.878Z,48.32
2023-02-18T15:31:02.923Z,48.13
2023-02-18T15:33:12.018Z,48.29
2023-02-18T15:35:17.324Z,48.47
2023-02-18T15:37:19.484Z,48.18
2023-02-18T15:39:21.432Z,48.49
2023-02-18T15:41:23.404Z,48.76
2023-02-18T15:43:26.002Z,48.38
2023-02-18T15:45:33.818Z,48.02
2023-02-18T15:47:42.282Z,48.48
2023-02-18T15:49:47.915Z,48.85
2023-02-18T15:51:51.548Z,49.22
2023-02-18T15:53:56.551Z,49.56
2023-02-18T15:55:58.391Z,49.79
2023-02-18T15:58:02.045Z,49.51
2023-02-18T16:00:14.542Z,49.28
2023-02-18T16:02:21.089Z,49.31
2023-02-18T16:04:24.692Z,49.46
2023-02-18T16:06:28.198Z,49.14
2023-02-18T16:08:29.820Z,49.21
2023-02-18T16:10:45.347Z,49.38
2023-02-18T16:12:50.794Z,49.67
2023-02-18T16:14:54.854Z,49.70
2023-02-18T16:17:08.335Z,49.24
2023-02-18T16:19:24.059Z,49.56
2023-02-18T16:21:31.349Z,49.63
2023-02-18T16:23:40.228Z,49.46
2023-02-18T16:25:44.019Z,49.24
2023-02-18T16:27:52.684Z,48.82
2023-02-18T16:30:00.504Z,49.25
2023-02-18T16:32:02.526Z,49.33
2023-02-18T16:34:04.332Z,49.25
2023-02-18T16:36:10.647Z,49.06
2023-02-18T16:38:16.844Z,49.20
2023-02-18T16:40:25.108Z,49.20
2023-02-18T16:42:26.679Z,49.60
2023-02-18T16:44:28.332Z,49.63
2023-02-18T16:46:30.010Z,49.48
2023-02-18T16:48:33.368Z,49.48
2023-02-18T16:50:35.258Z,49.83
2023-02-18T16:52:38.364Z,50.12
2023-02-18T16:54:39.932Z,49.87
2023-02-18T16:56:41.590Z,49.78
2023-02-18T16:58:43.417Z,50.14
2023-02-18T17:00:46.249Z,50.24
2023-02-18T17:02:49.876Z,50.30
2023-02-18T17:04:51.427Z,50.39
2023-02-18T17:06:53.103Z,50.13
2023-02-18T17:08:56.155Z,50.30
2023-02-18T17:10:58.413Z,50.42
2023-02-18T17:12:59.953Z,50.22
2023-02-18T17:15:01.496Z,50.54
2023-02-18T17:17:11.000Z,50.52
2023-02-18T17:19:12.712Z,50.70
2023-02-18T17:21:15.989Z,50.88
2023-02-18T17:23:20.032Z,51.13
2023-02-18T17:25:28.488Z,51.46
2023-02-18T17:27:30.142Z,51.41
2023-02-18T17:29:31.984Z,51.42
2023-02-18T17:31:37.108Z,51.37
2023-02-18T17:33:38.855Z,51.48
2023-02-18T17:35:40.691Z,51.57
2023-02-18T17:37:42.328Z,51.77
2023-02-18T17:39:43.918Z,51.93
2023-02-18T17:41:47.085Z,51.91
2023-02-18T17:43:48.588Z,51.94
2023-02-18T17:45:52.998Z,52.01
2023-02-18T17:47:54.994Z,52.11
2023-02-18T17:49:56.536Z,52.16
2023-02-18T17:51:58.261Z,52.42
2023-02-18T17:53:59.806Z,52.18
2023-02-18T17:56:01.447Z,52.36
2023-02-18T17:58:04.590Z,52.06
2023-02-18T18:00:07.555Z,52.31
2023-02-18T18:02:25.678Z,52.38
2023-02-18T18:04:27.389Z,52.03
2023-02-18T18:06:29.238Z,52.01
2023-02-18T18:08:30.959Z,52.00
2023-02-18T18:10:35.808Z,52.17
2023-02-18T18:12:37.740Z,52.05
2023-02-18T18:14:40.778Z,52.10
2023-02-18T18:16:42.429Z,52.01
2023-02-18T18:18:44.356Z,51.82
2023-02-18T18:20:47.874Z,52.10
2023-02-18T18:22:50.387Z,52.12
2023-02-18T18:24:52.013Z,52.15
2023-02-18T18:26:53.596Z,52.36
2023-02-18T18:28:55.147Z,52.18
2023-02-18T18:30:58.112Z,52.29
2023-02-18T18:32:59.670Z,52.72
2023-02-18T18:35:01.421Z,52.24
2023-02-18T18:37:03.074Z,52.30
2023-02-18T18:39:04.697Z,52.49
2023-02-18T18:41:06.460Z,52.39
2023-02-18T18:43:08.018Z,52.29
2023-02-18T18:45:36.248Z,52.14
2023-02-18T18:47:39.178Z,52.04
2023-02-18T18:49:40.828Z,52.49
2023-02-18T18:51:42.708Z,52.40
2023-02-18T18:53:44.665Z,52.55
2023-02-18T18:55:47.442Z,52.01
2023-02-18T18:57:49.086Z,52.21
2023-02-18T18:59:50.688Z,52.03
2023-02-18T19:01:52.409Z,52.18
2023-02-18T19:03:55.450Z,51.58
2023-02-18T19:05:57.596Z,51.95
2023-02-18T19:07:59.382Z,51.95
2023-02-18T19:10:00.956Z,52.10
2023-02-18T19:12:07.034Z,51.91
2023-02-18T19:14:09.435Z,51.60
2023-02-18T19:16:17.666Z,51.85
2023-02-18T19:18:21.187Z,52.02
2023-02-18T19:20:25.921Z,52.23
2023-02-18T19:22:27.551Z,52.44
2023-02-18T19:24:29.108Z,52.57
2023-02-18T19:26:30.658Z,52.29
2023-02-18T19:28:32.435Z,52.01
2023-02-18T19:30:36.340Z,52.18
2023-02-18T19:32:37.956Z,52.06
2023-02-18T19:34:39.469Z,52.43
2023-02-18T19:36:42.446Z,52.22
2023-02-18T19:38:44.456Z,52.17
2023-02-18T19:40:46.457Z,52.08
2023-02-18T19:42:48.612Z,52.46
2023-02-18T19:44:50.251Z,52.72
2023-02-18T19:46:53.663Z,52.36
2023-02-18T19:48:55.169Z,52.23
2023-02-18T19:50:56.698Z,51.96
2023-02-18T19:52:59.577Z,52.42
2023-02-18T19:55:01.383Z,52.33
2023-02-18T19:57:03.030Z,52.30
2023-02-18T19:59:04.619Z,52.16
2023-02-18T20:01:13.615Z,52.06
2023-02-18T20:03:15.244Z,52.36
2023-02-18T20:05:17.424Z,52.10
2023-02-18T20:07:20.209Z,52.16
2023-02-18T20:09:23.279Z,52.10
2023-02-18T20:11:24.900Z,51.88
2023-02-18T20:13:26.975Z,51.93
2023-02-18T20:15:28.668Z,51.88
2023-02-18T20:17:30.385Z,51.98
2023-02-18T20:19:33.027Z,51.86
2023-02-18T20:21:34.568Z,52.16
2023-02-18T20:23:36.131Z,51.81
2023-02-18T20:25:39.888Z,51.75
2023-02-18T20:27:58.198Z,52.11
2023-02-18T20:30:01.776Z,51.95
2023-02-18T20:32:04.171Z,52.00
2023-02-18T20:34:05.837Z,52.05
2023-02-18T20:36:08.154Z,52.21
2023-02-18T20:38:09.998Z,51.66
2023-02-18T20:40:11.632Z,51.70
2023-02-18T20:42:16.864Z,51.66
2023-02-18T20:44:20.307Z,51.60
2023-02-18T20:46:21.872Z,51.59
2023-02-18T20:48:23.508Z,51.38
2023-02-18T20:50:25.046Z,51.38
2023-02-18T20:52:26.700Z,51.69
2023-02-18T20:54:28.270Z,51.25
2023-02-18T20:56:30.168Z,51.43
2023-02-18T20:58:33.652Z,51.58
2023-02-18T21:00:35.259Z,51.08
2023-02-18T21:02:36.948Z,51.32
2023-02-18T21:04:38.506Z,51.59
2023-02-18T21:06:40.372Z,51.24
2023-02-18T21:08:43.698Z,51.38
2023-02-18T21:10:45.245Z,51.29
2023-02-18T21:12:47.078Z,51.23
2023-02-18T21:14:50.017Z,51.31
2023-02-18T21:16:51.810Z,51.50
2023-02-18T21:18:53.923Z,51.56
2023-02-18T21:20:55.625Z,51.68
2023-02-18T21:22:57.194Z,51.54
2023-02-18T21:24:58.772Z,51.93
2023-02-18T21:27:00.354Z,51.76
2023-02-18T21:29:04.733Z,51.65
2023-02-18T21:31:16.429Z,51.53
2023-02-18T21:33:18.131Z,52.01
2023-02-18T21:35:19.775Z,52.34
2023-02-18T21:37:21.347Z,52.15
2023-02-18T21:39:22.863Z,52.35
2023-02-18T21:41:25.158Z,52.26
2023-02-18T21:43:26.692Z,52.12
2023-02-18T21:45:28.305Z,52.23
2023-02-18T21:47:31.289Z,52.35
2023-02-18T21:49:33.050Z,52.26
2023-02-18T21:51:37.519Z,52.43
2023-02-18T21:53:40.103Z,52.23
2023-02-18T21:55:41.689Z,52.33
2023-02-18T21:57:43.297Z,52.34
2023-02-18T21:59:44.875Z,52.27
2023-02-18T22:01:46.687Z,52.12
2023-02-18T22:03:49.621Z,52.23
2023-02-18T22:05:51.289Z,52.52
2023-02-18T22:07:53.063Z,52.27
2023-02-18T22:09:55.157Z,52.40
2023-02-18T22:11:56.675Z,52.40
2023-02-18T22:13:58.503Z,52.33
2023-02-18T22:16:00.160Z,52.33
2023-02-18T22:18:02.192Z,52.27
2023-02-18T22:20:06.470Z,52.27
2023-02-18T22:22:08.072Z,52.01
2023-02-18T22:24:12.117Z,51.81
2023-02-18T22:26:13.893Z,52.29
2023-02-18T22:28:15.525Z,52.19
2023-02-18T22:30:17.472Z,51.90
2023-02-18T22:32:19.256Z,51.99
2023-02-18T22:34:22.000Z,51.97
2023-02-18T22:36:27.130Z,52.19
2023-02-18T22:38:29.489Z,52.25
2023-02-18T22:40:31.143Z,51.99
2023-02-18T22:42:32.664Z,52.26
2023-02-18T22:44:34.251Z,52.35
2023-02-18T22:46:36.977Z,52.24
2023-02-18T22:48:39.436Z,52.42
2023-02-18T22:50:43.086Z,52.44
2023-02-18T22:52:46.066Z,52.37
2023-02-18T22:54:47.640Z,52.45
2023-02-18T22:56:49.508Z,52.26
2023-02-18T22:58:52.549Z,52.36
2023-02-18T23:00:54.122Z,52.27
2023-02-18T23:02:55.696Z,52.62
2023-02-18T23:04:57.304Z,52.04
2023-02-18T23:06:58.938Z,51.96
2023-02-18T23:09:02.381Z,52.28
2023-02-18T23:11:06.769Z,52.30
2023-02-18T23:13:08.315Z,52.19
2023-02-18T23:15:09.840Z,52.29
2023-02-18T23:17:11.441Z,52.34
2023-02-18T23:19:13.324Z,52.01
2023-02-18T23:21:15.574Z,52.04
2023-02-18T23:23:17.172Z,52.32
2023-02-18T23:25:20.060Z,52.17
2023-02-18T23:27:21.872Z,52.31
2023-02-18T23:29:23.420Z,52.33
2023-02-18T23:31:27.657Z,52.48
2023-02-18T23:33:29.331Z,52.63
2023-02-18T23:35:30.893Z,52.38
2023-02-18T23:37:32.424Z,52.52
2023-02-18T23:39:34.348Z,52.89
2023-02-18T23:41:37.449Z,52.46
2023-02-18T23:43:39.002Z,52.44
2023-02-18T23:45:40.573Z,52.37
2023-02-18T23:47:42.310Z,52.49
2023-02-18T23:49:43.819Z,52.64
2023-02-18T23:51:45.329Z,52.80
2023-02-18T23:53:47.160Z,52.68
2023-02-18T23:55:48.733Z,52.89
2023-02-18T23:57:51.609Z,53.33
2023-02-18T23:59:53.152Z,53.20
